Portada
METAR-TAF:

METAR-TAF

Aeropuertos :

Aeropuerto de Pamplona

Pamplona, España

latitud: 42-46N, longitud: 001-38W, altitud: 459 m

Observación

El informe se hizo hace 39 minutos, a las 17:00 UTC
Viento 4 kt del sur, variando entre sureste y sur-suroeste
Temperatura 23°C
Humedad 44%
Presión 1022 hPa
Visibilidad 10 km o más
sin nubes por debajo de 1500 m y sin presencia de cumulonimbus.

METAR: LEPP 191700Z 17004KT 140V210 CAVOK 23/10 Q1022

Hora: 19:39 (17:39 UTC)

Pronóstico

El informe se hizo hace 3 horas y 39 minutos, a las 14:00 UTC
Pronóstico válido del 19 a las 15 UTC al 20 a las 15 UTC
Viento 9 kt del sur-sureste
Visibilidad 10 km o más
sin nubes por debajo de 1500 m y sin presencia de cumulonimbus.

TAF: LEPP 191400Z 1915/2015 16009KT CAVOK TX24/1915Z TN14/2006Z

Observaciones y pronósticos meteorológicos de más de 4000 aeropuertos (mensajes METAR y TAF).

Los puntos amarillos y rojos representan las estaciones disponibles.

Ponga el ratón en el punto deseado para ver el nombre de la estación.

Haga clic para ver las observaciones y los pronósticos meteorológicos.

Para cambiar el mapa : haga clic en los botones verdes con una cruz de color negro para hacer un zoom, en el botón verde con un guión para alejar o en las flechas verdes para mapas adyacentes.


METAR-TAF: